Time;durP1;ratioP1;P1;durP2;ratioP2;P2;SDS_P1;SDS_P2;PMS_P1;PMS_P2;Temp;Humidity;BMP_temperature;BMP_pressure;BME280_temperature;BME280_humidity;BME280_pressure;Samples;Min_cycle;Max_cycle;Signal;HPM_P1;HPM_P2
2021/12/08 01:02:25;;;;;;;3.13;1.60;;;-0.50;1.00;196.50;224877.00;;;;4997668;28;20214;-80
2021/12/08 01:06:29;;;;;;;4.23;2.00;;;-0.50;1.00;196.50;224877.00;;;;4950855;28;20231;-82
2021/12/08 01:26:33;;;;;;;4.80;2.10;;;-0.40;1.00;196.50;224877.00;;;;5095660;22;20246;-81
2021/12/08 01:30:03;;;;;;;3.07;2.00;;;-0.40;1.00;196.50;224877.00;;;;4999903;28;20196;-80
2021/12/08 03:50:06;;;;;;;14.83;8.90;;;0.00;1.00;196.50;224877.00;;;;5043084;23;20234;-90
2021/12/08 03:52:33;;;;;;;14.50;9.57;;;0.00;1.00;196.50;224877.00;;;;4945078;28;20670;-91
2021/12/08 03:59:26;;;;;;;16.33;8.60;;;0.10;1.00;196.50;224877.00;;;;4926083;29;20215;-91
2021/12/08 04:01:53;;;;;;;13.43;9.03;;;0.00;1.00;196.50;224877.00;;;;4919203;29;20315;-90
2021/12/08 04:04:25;;;;;;;16.10;9.27;;;0.10;1.00;196.50;224877.00;;;;4884151;29;20193;-90
2021/12/08 04:06:55;;;;;;;12.47;9.10;;;0.10;1.00;196.50;224877.00;;;;4868222;29;20209;-93
2021/12/08 04:11:56;;;;;;;14.80;10.20;;;0.10;8.20;196.50;224877.00;;;;4870434;29;20284;-92
2021/12/08 04:14:31;;;;;;;13.10;9.53;;;0.10;14.60;196.50;224877.00;;;;4910691;29;20197;-92
2021/12/08 04:17:44;;;;;;;17.13;9.40;;;0.20;19.70;196.50;224877.00;;;;4882715;29;20196;-92
2021/12/08 04:20:31;;;;;;;15.07;9.73;;;0.20;31.10;196.50;224877.00;;;;4893172;29;20207;-93
2021/12/08 04:23:00;;;;;;;15.30;9.70;;;0.20;43.10;196.50;224877.00;;;;4876339;29;20205;-91
2021/12/08 04:25:35;;;;;;;12.77;8.93;;;0.20;47.60;196.50;224877.00;;;;4882904;29;20200;-91
2021/12/08 04:28:13;;;;;;;15.03;9.33;;;0.20;50.20;196.50;224877.00;;;;4920286;28;20198;-90
2021/12/08 04:30:54;;;;;;;13.97;9.93;;;0.20;65.30;196.50;224877.00;;;;4944924;29;20194;-92
2021/12/08 04:33:23;;;;;;;15.00;9.57;;;0.20;84.70;196.50;224877.00;;;;4929625;28;20194;-95
2021/12/08 04:35:54;;;;;;;16.80;10.00;;;0.30;99.90;196.50;224877.00;;;;4945186;29;20211;-94
2021/12/08 04:38:32;;;;;;;14.37;9.93;;;0.30;99.90;196.50;224877.00;;;;4927464;29;20199;-95
2021/12/08 04:41:31;;;;;;;14.27;10.13;;;0.30;99.90;196.50;224877.00;;;;4927431;28;20697;-94
2021/12/08 09:27:55;;;;;;;6.37;4.17;;;1.50;99.90;196.50;224877.00;;;;4974045;28;20222;-91
2021/12/08 09:30:34;;;;;;;4.87;4.00;;;1.50;99.90;196.50;224877.00;;;;4959364;28;20285;-95
2021/12/08 09:33:17;;;;;;;4.73;4.10;;;1.50;99.90;196.50;224877.00;;;;4946519;28;20571;-94
2021/12/08 09:36:00;;;;;;;5.40;3.80;;;1.60;99.90;196.50;224877.00;;;;4928822;29;20219;-92
2021/12/08 09:38:42;;;;;;;6.87;3.83;;;1.70;99.90;196.50;224877.00;;;;4940252;29;20227;-91
2021/12/08 09:41:28;;;;;;;5.13;3.90;;;1.70;99.90;196.50;224877.00;;;;4939515;29;20219;-91
2021/12/08 09:44:14;;;;;;;5.57;4.07;;;1.80;99.90;196.50;224877.00;;;;4923681;29;20293;-94
2021/12/08 09:46:47;;;;;;;6.20;3.83;;;1.80;99.90;196.50;224877.00;;;;4940204;29;20246;-93
2021/12/08 09:49:18;;;;;;;5.63;3.63;;;1.90;99.90;196.50;224877.00;;;;4923807;29;20550;-90
2021/12/08 09:51:51;;;;;;;6.83;4.17;;;1.90;99.90;196.50;224877.00;;;;4940440;29;20203;-87
2021/12/08 09:54:23;;;;;;;4.93;3.73;;;1.90;99.90;196.50;224877.00;;;;4956485;28;20203;-89
2021/12/08 09:57:01;;;;;;;4.77;3.47;;;2.00;99.90;196.50;224877.00;;;;4940622;29;20258;-90
2021/12/08 09:59:46;;;;;;;4.50;3.30;;;2.00;99.90;196.50;224877.00;;;;4940599;29;20206;-88
2021/12/08 10:02:45;;;;;;;;;;;;;;;;;;;;;
2021/12/08 10:05:23;;;;;;;6.33;3.77;;;2.10;99.90;196.50;224877.00;;;;4958484;28;20191;-87
2021/12/08 10:07:53;;;;;;;6.43;3.83;;;2.10;99.90;196.50;224877.00;;;;4941755;29;20219;-89
2021/12/08 10:10:28;;;;;;;4.63;3.30;;;2.10;99.90;196.50;224877.00;;;;4940826;29;20284;-89
2021/12/08 10:13:22;;;;;;;4.73;3.73;;;2.10;80.60;196.50;224877.00;;;;4926615;29;20213;-89
2021/12/08 10:15:51;;;;;;;5.23;3.53;;;2.10;50.90;196.50;224877.00;;;;4926586;29;20206;-90
2021/12/08 10:18:20;;;;;;;6.37;3.73;;;2.00;26.70;196.50;224877.00;;;;4941770;28;20286;-88
2021/12/08 10:20:58;;;;;;;4.93;3.80;;;2.10;2.90;196.50;224877.00;;;;4957379;28;20650;-89
2021/12/08 10:23:39;;;;;;;4.67;3.30;;;2.10;1.00;196.50;224877.00;;;;4939811;28;20203;-90
2021/12/08 10:29:28;;;;;;;5.50;3.67;;;2.10;1.00;196.50;224877.00;;;;4926829;29;20198;-88
2021/12/08 10:32:00;;;;;;;7.03;3.67;;;2.10;1.00;196.50;224877.00;;;;4941163;29;20290;-90
2021/12/08 10:34:48;;;;;;;4.43;3.23;;;2.10;1.00;196.50;224877.00;;;;4940074;28;20223;-90
2021/12/08 10:37:32;;;;;;;5.30;3.47;;;2.20;1.00;196.50;224877.00;;;;4956728;28;20577;-90
2021/12/08 10:40:11;;;;;;;4.27;3.50;;;2.20;1.00;196.50;224877.00;;;;4942742;29;20199;-89
2021/12/08 10:43:20;;;;;;;4.83;3.47;;;2.20;1.00;196.50;224877.00;;;;4943395;29;20225;-90
2021/12/08 10:46:54;;;;;;;3.77;3.23;;;2.20;1.00;196.50;224877.00;;;;4929194;29;20555;-89
2021/12/08 10:57:42;;;;;;;3.50;2.83;;;2.30;1.00;196.50;224877.00;;;;4885942;29;20197;-88
2021/12/08 11:01:23;;;;;;;;;;;;;;;;;;;;;
2021/12/08 11:04:53;;;;;;;3.60;2.80;;;2.40;1.00;196.50;224877.00;;;;4860843;29;20205;-89
2021/12/08 11:13:19;;;;;;;3.70;2.30;;;2.60;1.00;196.50;224877.00;;;;4861552;29;20218;-89
2021/12/08 11:16:50;;;;;;;4.30;2.73;;;2.70;1.00;196.50;224877.00;;;;4866836;29;20206;-88
2021/12/08 11:19:35;;;;;;;3.93;2.37;;;2.90;1.00;196.50;224877.00;;;;4868046;29;20202;-88
2021/12/08 11:22:10;;;;;;;2.87;2.47;;;2.90;1.00;196.50;224877.00;;;;4866008;29;20244;-89
2021/12/08 11:24:56;;;;;;;3.37;2.57;;;2.90;1.00;196.50;224877.00;;;;4866831;29;20202;-88
2021/12/08 11:27:37;;;;;;;4.37;2.80;;;2.90;99.90;196.50;224877.00;;;;4866904;29;20689;-86
2021/12/08 11:30:22;;;;;;;3.13;2.47;;;2.80;99.90;196.50;224877.00;;;;4867125;29;20634;-90
2021/12/08 11:33:21;;;;;;;2.53;2.33;;;2.70;99.90;196.50;224877.00;;;;4886425;29;20215;-87
2021/12/08 11:36:29;;;;;;;2.90;2.30;;;2.70;99.90;196.50;224877.00;;;;4903137;29;20225;-90
2021/12/08 11:39:21;;;;;;;3.60;2.20;;;2.80;99.90;196.50;224877.00;;;;4903180;29;20678;-88
2021/12/08 11:41:56;;;;;;;3.67;2.53;;;2.80;99.90;196.50;224877.00;;;;4903266;29;20222;-88
2021/12/08 11:44:32;;;;;;;2.40;2.20;;;2.80;99.90;196.50;224877.00;;;;4916224;29;20212;-89
2021/12/08 11:47:15;;;;;;;2.00;1.57;;;2.80;99.90;196.50;224877.00;;;;4919414;29;20287;-89
2021/12/08 11:49:50;;;;;;;2.47;1.70;;;2.80;99.90;196.50;224877.00;;;;4903465;29;20593;-88
2021/12/08 11:52:23;;;;;;;2.80;1.67;;;2.80;99.90;196.50;224877.00;;;;4902188;29;20210;-89
2021/12/08 11:54:56;;;;;;;3.87;1.80;;;2.70;99.90;196.50;224877.00;;;;4918827;29;20230;-86
2021/12/08 11:57:36;;;;;;;2.43;1.57;;;2.70;99.90;196.50;224877.00;;;;4912504;29;20199;-86
2021/12/08 12:00:28;;;;;;;1.77;1.27;;;2.70;99.90;196.50;224877.00;;;;4923933;29;20207;-86
2021/12/08 12:03:04;;;;;;;1.50;1.40;;;2.70;99.90;196.50;224877.00;;;;4958046;29;20281;-89
2021/12/08 12:05:46;;;;;;;1.43;1.20;;;2.80;99.90;196.50;224877.00;;;;4937987;29;20195;-89
2021/12/08 12:08:22;;;;;;;3.13;1.30;;;2.80;99.90;196.50;224877.00;;;;4923346;29;20204;-84
2021/12/08 12:10:56;;;;;;;3.33;1.70;;;2.80;99.90;196.50;224877.00;;;;4927824;29;20188;-89
2021/12/08 12:13:27;;;;;;;6.17;1.30;;;2.80;99.90;196.50;224877.00;;;;4921912;29;20994;-87
2021/12/08 12:15:57;;;;;;;1.47;1.23;;;2.80;99.90;196.50;224877.00;;;;4937558;29;20200;-87
2021/12/08 12:18:32;;;;;;;1.80;1.60;;;2.80;99.90;196.50;224877.00;;;;4922744;29;20267;-86
2021/12/08 12:21:36;;;;;;;2.13;1.30;;;2.70;99.90;196.50;224877.00;;;;4944383;28;20625;-89
2021/12/08 12:24:40;;;;;;;2.67;1.33;;;2.60;99.90;196.50;224877.00;;;;4938802;29;20283;-87
2021/12/08 12:27:47;;;;;;;5.20;1.60;;;2.60;99.90;196.50;224877.00;;;;4922693;29;20222;-87
2021/12/08 12:31:19;;;;;;;1.50;1.10;;;2.60;1.00;196.50;224877.00;;;;4918225;29;20206;-88
2021/12/08 12:33:50;;;;;;;3.23;1.10;;;2.50;1.00;196.50;224877.00;;;;4872424;28;20689;-86
2021/12/08 12:36:28;;;;;;;1.70;1.20;;;2.40;1.00;196.50;224877.00;;;;4939605;29;20250;-87
2021/12/08 12:39:23;;;;;;;5.27;1.33;;;2.40;1.00;196.50;224877.00;;;;4941556;29;20544;-88
2021/12/08 12:42:13;;;;;;;7.60;2.10;;;2.40;1.00;196.50;224877.00;;;;4930664;28;20225;-84
2021/12/08 12:45:02;;;;;;;2.10;1.07;;;2.40;1.00;196.50;224877.00;;;;4942091;29;20222;-88
2021/12/08 12:47:33;;;;;;;2.87;1.10;;;2.40;1.00;196.50;224877.00;;;;4931488;29;20203;-90
2021/12/08 12:50:23;;;;;;;5.67;1.30;;;2.50;1.00;196.50;224877.00;;;;4937036;29;20548;-89
2021/12/08 12:53:01;;;;;;;6.50;1.63;;;2.50;1.00;196.50;224877.00;;;;4939129;29;20201;-87
2021/12/08 12:55:38;;;;;;;4.50;1.43;;;2.60;1.00;196.50;224877.00;;;;4954936;29;20218;-87
2021/12/08 12:58:05;;;;;;;2.23;1.00;;;2.60;1.00;196.50;224877.00;;;;4941177;29;20200;-90
2021/12/08 13:00:48;;;;;;;3.73;1.03;;;2.70;1.40;196.50;224877.00;;;;4922093;29;20204;-90
2021/12/08 13:03:47;;;;;;;2.07;1.10;;;2.70;99.90;196.50;224877.00;;;;4926737;29;20219;-90
2021/12/08 13:06:41;;;;;;;4.57;1.23;;;2.70;99.90;196.50;224877.00;;;;4922674;29;20709;-92
2021/12/08 13:09:41;;;;;;;5.33;1.10;;;2.70;99.90;196.50;224877.00;;;;4940071;28;20530;-91
2021/12/08 13:12:38;;;;;;;3.23;1.10;;;2.70;99.90;196.50;224877.00;;;;4956013;28;20203;-90
2021/12/08 13:15:19;;;;;;;6.17;2.47;;;2.80;99.90;196.50;224877.00;;;;4973589;28;20725;-88
2021/12/08 13:18:15;;;;;;;6.37;2.70;;;2.80;99.90;196.50;224877.00;;;;4956449;28;20540;-91
2021/12/08 13:21:07;;;;;;;6.33;1.37;;;2.70;99.90;196.50;224877.00;;;;4938522;29;20195;-88
2021/12/08 13:23:43;;;;;;;5.73;1.73;;;2.80;99.90;196.50;224877.00;;;;4924446;29;20226;-87
2021/12/08 13:26:23;;;;;;;3.57;1.03;;;2.70;99.90;196.50;224877.00;;;;4939764;29;20207;-86
2021/12/08 13:29:23;;;;;;;5.70;1.43;;;2.60;99.90;196.50;224877.00;;;;4955514;29;20229;-90
2021/12/08 13:32:46;;;;;;;4.13;1.30;;;2.60;99.90;196.50;224877.00;;;;4936050;29;20227;-90
2021/12/08 13:36:20;;;;;;;8.13;2.00;;;2.60;99.90;196.50;224877.00;;;;4926319;29;20211;-91
2021/12/08 13:41:26;;;;;;;5.30;2.10;;;2.60;99.90;196.50;224877.00;;;;4945310;29;20218;-93
2021/12/08 13:44:16;;;;;;;7.77;3.13;;;2.70;99.90;196.50;224877.00;;;;4839738;29;20324;-92
2021/12/08 13:47:00;;;;;;;6.33;1.83;;;2.70;99.90;196.50;224877.00;;;;4853402;29;20291;-93
2021/12/08 13:49:50;;;;;;;1.53;1.20;;;2.70;99.90;196.50;224877.00;;;;4867863;29;20205;-88
2021/12/08 13:53:10;;;;;;;11.33;2.17;;;2.50;99.90;196.50;224877.00;;;;4882613;29;20201;-88
2021/12/08 13:56:02;;;;;;;4.40;1.20;;;2.50;99.90;196.50;224877.00;;;;4868138;29;20264;-92
2021/12/08 13:59:10;;;;;;;5.53;2.93;;;2.40;99.90;196.50;224877.00;;;;4889580;29;20606;-92
2021/12/08 14:01:41;;;;;;;5.57;1.53;;;2.40;99.90;196.50;224877.00;;;;4883358;29;20784;-90
2021/12/08 14:04:20;;;;;;;7.17;1.57;;;2.50;99.90;196.50;224877.00;;;;4869998;29;20661;-90
2021/12/08 14:07:02;;;;;;;5.37;1.40;;;2.50;99.90;196.50;224877.00;;;;4898407;29;20203;-91
2021/12/08 14:09:40;;;;;;;7.27;1.47;;;2.50;99.90;196.50;224877.00;;;;4925713;29;20183;-89
2021/12/08 14:12:11;;;;;;;6.27;1.33;;;2.40;99.90;196.50;224877.00;;;;4940679;29;20203;-91
2021/12/08 14:14:58;;;;;;;6.40;1.63;;;2.30;99.90;196.50;224877.00;;;;4941340;29;20226;-91
2021/12/08 14:17:30;;;;;;;5.53;1.67;;;2.20;99.90;196.50;224877.00;;;;4960811;29;20198;-89
2021/12/08 14:19:59;;;;;;;8.07;1.70;;;2.10;99.90;196.50;224877.00;;;;4944351;29;20698;-90
2021/12/08 14:22:39;;;;;;;5.97;1.63;;;2.10;1.00;196.50;224877.00;;;;4960599;29;20211;-87
2021/12/08 14:25:11;;;;;;;8.13;1.83;;;2.00;1.00;196.50;224877.00;;;;4912968;29;20191;-91
2021/12/08 14:27:42;;;;;;;10.93;2.50;;;2.00;1.00;196.50;224877.00;;;;4943696;29;20209;-89
2021/12/08 14:30:11;;;;;;;6.37;1.83;;;1.90;1.00;196.50;224877.00;;;;4943563;29;20195;-90
2021/12/08 14:32:38;;;;;;;4.47;1.70;;;1.90;1.00;196.50;224877.00;;;;4942499;29;20210;-90
2021/12/08 14:35:10;;;;;;;4.03;1.40;;;1.80;1.00;196.50;224877.00;;;;4957153;28;20311;-89
2021/12/08 14:37:41;;;;;;;6.20;1.53;;;1.80;1.00;196.50;224877.00;;;;4943606;29;20589;-90
2021/12/08 14:45:17;;;;;;;8.63;1.50;;;1.70;1.00;196.50;224877.00;;;;4876288;29;20692;-92
2021/12/08 14:47:57;;;;;;;4.87;1.30;;;1.60;1.00;196.50;224877.00;;;;4881865;29;20207;-91
2021/12/08 14:50:59;;;;;;;9.57;1.40;;;1.60;1.00;196.50;224877.00;;;;4961892;29;20218;-92
2021/12/08 14:53:47;;;;;;;5.07;1.33;;;1.60;1.00;196.50;224877.00;;;;4945752;29;20199;-91
2021/12/08 14:56:49;;;;;;;8.40;2.97;;;1.60;1.00;196.50;224877.00;;;;4943899;29;20195;-91
2021/12/08 15:00:16;;;;;;;4.43;1.70;;;1.50;1.00;196.50;224877.00;;;;4958725;29;20453;-91
2021/12/08 15:03:11;;;;;;;9.10;1.93;;;1.50;1.00;196.50;224877.00;;;;4896873;29;20568;-91
2021/12/08 15:06:08;;;;;;;9.17;1.60;;;1.50;1.00;196.50;224877.00;;;;4940270;29;20185;-90
2021/12/08 15:08:40;;;;;;;10.60;1.80;;;1.50;1.00;196.50;224877.00;;;;4915678;28;20286;-90
2021/12/08 15:11:15;;;;;;;5.67;1.53;;;1.40;6.90;196.50;224877.00;;;;4932097;29;20192;-91
2021/12/08 15:13:43;;;;;;;7.90;1.80;;;1.50;16.30;196.50;224877.00;;;;4936129;28;20230;-90
2021/12/08 15:16:20;;;;;;;6.50;1.90;;;1.40;25.40;196.50;224877.00;;;;4942687;29;20202;-90
2021/12/08 15:19:12;;;;;;;8.63;1.67;;;1.40;37.30;196.50;224877.00;;;;4937784;29;20246;-90
2021/12/08 15:21:46;;;;;;;4.77;1.60;;;1.40;55.20;196.50;224877.00;;;;4919559;28;20203;-91
2021/12/08 15:24:21;;;;;;;8.43;2.00;;;1.40;86.30;196.50;224877.00;;;;4961809;28;20277;-90
2021/12/08 15:26:56;;;;;;;8.47;2.30;;;1.40;99.60;196.50;224877.00;;;;4951961;28;20297;-91
2021/12/08 15:29:45;;;;;;;12.87;7.13;;;1.40;99.90;196.50;224877.00;;;;4928827;28;20615;-91
2021/12/08 15:32:42;;;;;;;14.40;7.50;;;1.30;99.90;196.50;224877.00;;;;4929389;29;20585;-91
2021/12/08 15:35:33;;;;;;;;;;;;;;;;;;;;;
2021/12/08 15:38:21;;;;;;;8.07;2.43;;;1.30;99.90;196.50;224877.00;;;;4944566;29;20191;-90
2021/12/08 15:41:17;;;;;;;12.93;3.27;;;1.20;99.90;196.50;224877.00;;;;4941314;29;20258;-90
2021/12/08 15:43:48;;;;;;;12.03;8.17;;;1.20;99.90;196.50;224877.00;;;;4938884;29;20614;-90
2021/12/08 15:46:19;;;;;;;15.63;6.73;;;1.20;99.90;196.50;224877.00;;;;4956950;28;20187;-91
2021/12/08 15:48:54;;;;;;;9.77;4.30;;;1.10;99.90;196.50;224877.00;;;;4941399;28;20214;-92
2021/12/08 15:51:32;;;;;;;13.13;6.73;;;1.20;99.90;196.50;224877.00;;;;4941261;29;20638;-92
2021/12/08 15:54:03;;;;;;;32.10;9.03;;;1.10;99.90;196.50;224877.00;;;;4955978;28;20672;-92
2021/12/08 15:57:00;;;;;;;11.77;3.60;;;1.20;99.90;196.50;224877.00;;;;4953569;28;20941;-91
2021/12/08 15:59:33;;;;;;;27.27;9.03;;;1.10;99.90;196.50;224877.00;;;;4957340;28;20199;-92
2021/12/08 16:02:11;;;;;;;18.57;6.20;;;1.20;99.90;196.50;224877.00;;;;4955686;29;20199;-90
2021/12/08 16:04:57;;;;;;;9.40;3.77;;;1.20;99.90;196.50;224877.00;;;;4956858;28;20686;-92
2021/12/08 16:07:49;;;;;;;9.10;2.10;;;1.10;99.90;196.50;224877.00;;;;4944595;28;20282;-89
2021/12/08 16:10:28;;;;;;;12.37;2.47;;;1.10;99.90;196.50;224877.00;;;;4941639;29;20561;-91
2021/12/08 16:13:11;;;;;;;8.47;2.30;;;1.10;99.90;196.50;224877.00;;;;4940465;28;20207;-90
2021/12/08 16:15:50;;;;;;;9.43;2.50;;;1.10;99.90;196.50;224877.00;;;;4941095;29;20662;-90
2021/12/08 16:18:30;;;;;;;12.70;4.10;;;1.10;99.90;196.50;224877.00;;;;4941792;29;20440;-90
2021/12/08 16:21:00;;;;;;;13.63;5.67;;;1.10;99.90;196.50;224877.00;;;;4956820;28;20548;-92
2021/12/08 16:23:28;;;;;;;17.63;5.03;;;1.10;99.90;196.50;224877.00;;;;4944909;28;20228;-89
2021/12/08 16:25:59;;;;;;;9.67;2.50;;;1.00;99.90;196.50;224877.00;;;;4923573;29;20203;-90
2021/12/08 16:28:38;;;;;;;11.93;2.90;;;1.10;99.90;196.50;224877.00;;;;4956358;29;20293;-89
2021/12/08 16:31:05;;;;;;;9.83;2.97;;;1.10;99.90;196.50;224877.00;;;;4956011;29;20227;-89
2021/12/08 16:33:33;;;;;;;17.80;5.80;;;1.10;99.90;196.50;224877.00;;;;4971536;28;20658;-88
2021/12/08 16:36:00;;;;;;;14.13;3.20;;;1.00;99.90;196.50;224877.00;;;;4971511;28;20231;-89
2021/12/08 16:38:28;;;;;;;14.50;2.53;;;1.00;99.90;196.50;224877.00;;;;4955670;28;20674;-88
2021/12/08 16:43:45;;;;;;;9.60;2.10;;;1.00;99.90;196.50;224877.00;;;;4955627;29;20219;-91
2021/12/08 16:46:12;;;;;;;7.67;3.03;;;1.00;99.90;196.50;224877.00;;;;4971843;28;20750;-89
2021/12/08 16:48:42;;;;;;;6.50;2.40;;;1.00;99.90;196.50;224877.00;;;;4972225;28;20258;-90
2021/12/08 16:51:09;;;;;;;11.50;2.40;;;0.90;99.90;196.50;224877.00;;;;4956120;29;20199;-87
2021/12/08 16:53:37;;;;;;;12.97;2.60;;;1.00;99.90;196.50;224877.00;;;;4923435;29;20222;-86
2021/12/08 16:56:06;;;;;;;16.10;2.43;;;1.00;99.90;196.50;224877.00;;;;4919041;29;20196;-87
2021/12/08 16:58:33;;;;;;;17.30;2.63;;;1.00;99.90;196.50;224877.00;;;;4903649;29;20207;-87
2021/12/08 17:01:02;;;;;;;11.10;2.30;;;1.00;99.90;196.50;224877.00;;;;4918370;29;20675;-87
2021/12/08 17:03:32;;;;;;;14.33;3.90;;;1.00;99.90;196.50;224877.00;;;;4917770;29;20274;-88
2021/12/08 17:06:02;;;;;;;8.87;3.37;;;1.00;99.90;196.50;224877.00;;;;4905109;29;20215;-87
2021/12/08 17:08:35;;;;;;;12.70;3.83;;;1.00;99.90;196.50;224877.00;;;;4951770;28;20198;-87
2021/12/08 17:11:05;;;;;;;11.20;3.27;;;1.00;99.90;196.50;224877.00;;;;4946786;29;20202;-86
2021/12/08 17:13:35;;;;;;;13.70;2.47;;;1.00;99.90;196.50;224877.00;;;;4935361;29;20203;-86
2021/12/08 17:16:04;;;;;;;8.47;1.83;;;1.00;99.90;196.50;224877.00;;;;4922847;29;20210;-87
2021/12/08 17:18:34;;;;;;;22.00;4.10;;;1.00;99.90;196.50;224877.00;;;;4930210;29;20204;-87
2021/12/08 17:21:03;;;;;;;15.57;2.77;;;1.00;99.90;196.50;224877.00;;;;4940032;29;20262;-86
2021/12/08 17:23:30;;;;;;;13.17;2.53;;;0.90;99.90;196.50;224877.00;;;;4952755;28;20405;-88
2021/12/08 17:25:57;;;;;;;12.27;2.70;;;0.90;99.90;196.50;224877.00;;;;4938413;29;20286;-87
2021/12/08 17:28:30;;;;;;;16.37;2.23;;;0.90;99.90;196.50;224877.00;;;;4936789;29;20571;-87
2021/12/08 17:30:59;;;;;;;10.87;2.53;;;0.90;99.90;196.50;224877.00;;;;4935450;28;20305;-86
2021/12/08 17:33:27;;;;;;;6.50;2.10;;;0.80;99.90;196.50;224877.00;;;;4929173;29;20600;-87
2021/12/08 17:35:55;;;;;;;15.57;8.77;;;0.80;99.90;196.50;224877.00;;;;4917416;28;20211;-86
2021/12/08 17:38:22;;;;;;;25.07;17.43;;;0.80;99.90;196.50;224877.00;;;;4936484;29;20289;-86
2021/12/08 17:40:49;;;;;;;17.17;6.50;;;0.80;99.90;196.50;224877.00;;;;4934404;29;20279;-87
2021/12/08 17:43:16;;;;;;;13.67;5.87;;;0.80;99.90;196.50;224877.00;;;;4901747;29;20753;-87
2021/12/08 17:45:48;;;;;;;18.43;3.60;;;0.80;99.90;196.50;224877.00;;;;4917740;29;20204;-87
2021/12/08 17:48:17;;;;;;;9.93;2.23;;;0.80;99.90;196.50;224877.00;;;;4931434;29;20191;-87
2021/12/08 17:50:50;;;;;;;11.43;2.20;;;0.80;99.90;196.50;224877.00;;;;4924311;29;20187;-87
2021/12/08 17:53:18;;;;;;;27.10;7.77;;;0.80;99.90;196.50;224877.00;;;;4917721;29;20219;-88
2021/12/08 17:55:47;;;;;;;7.60;3.50;;;0.80;99.90;196.50;224877.00;;;;4928224;29;20675;-87
2021/12/08 17:58:15;;;;;;;9.53;3.90;;;0.80;99.90;196.50;224877.00;;;;4931624;29;20204;-87
2021/12/08 18:00:47;;;;;;;11.30;2.40;;;0.90;99.90;196.50;224877.00;;;;4927098;29;20741;-88
2021/12/08 18:03:17;;;;;;;11.47;2.50;;;0.90;99.90;196.50;224877.00;;;;4936321;29;20219;-86
2021/12/08 18:05:47;;;;;;;13.60;2.70;;;0.90;99.90;196.50;224877.00;;;;4932619;29;20972;-87
2021/12/08 18:08:22;;;;;;;17.07;3.50;;;0.90;99.90;196.50;224877.00;;;;4914289;28;20191;-87
2021/12/08 18:10:51;;;;;;;10.17;2.63;;;0.90;99.90;196.50;224877.00;;;;4937001;29;20284;-86
2021/12/08 18:13:19;;;;;;;13.10;3.37;;;0.90;99.90;196.50;224877.00;;;;4920865;28;20205;-86
2021/12/08 18:15:46;;;;;;;10.40;3.00;;;1.00;99.90;196.50;224877.00;;;;4938994;29;20245;-86
2021/12/08 18:18:14;;;;;;;12.13;2.40;;;0.90;99.90;196.50;224877.00;;;;4921579;29;20552;-85
2021/12/08 18:20:48;;;;;;;14.10;2.20;;;1.00;99.90;196.50;224877.00;;;;4930169;29;20567;-86
2021/12/08 18:23:15;;;;;;;10.40;2.63;;;1.00;99.90;196.50;224877.00;;;;4926437;29;20682;-88
2021/12/08 18:25:43;;;;;;;15.60;2.73;;;0.90;99.90;196.50;224877.00;;;;4947780;28;20208;-86
2021/12/08 18:28:14;;;;;;;11.80;2.40;;;1.00;99.90;196.50;224877.00;;;;4949841;28;20449;-87
2021/12/08 18:30:46;;;;;;;11.73;2.23;;;0.90;99.90;196.50;224877.00;;;;4941632;28;20658;-86
2021/12/08 18:33:14;;;;;;;15.90;3.80;;;1.00;99.90;196.50;224877.00;;;;4951056;29;20184;-86
2021/12/08 18:38:36;;;;;;;8.20;3.20;;;1.00;99.90;196.50;224877.00;;;;4951575;29;20206;-87
2021/12/08 18:41:13;;;;;;;14.47;2.83;;;1.00;99.90;196.50;224877.00;;;;4935467;29;20192;-84
2021/12/08 18:43:43;;;;;;;12.67;2.50;;;1.00;99.90;196.50;224877.00;;;;4934918;29;20294;-86
2021/12/08 18:46:13;;;;;;;21.07;8.87;;;0.90;99.90;196.50;224877.00;;;;4945018;29;20200;-87
2021/12/08 18:48:43;;;;;;;13.07;3.67;;;1.00;99.90;196.50;224877.00;;;;4924229;29;20219;-87
2021/12/08 18:51:21;;;;;;;17.03;3.40;;;1.00;99.90;196.50;224877.00;;;;4907432;29;20191;-86
2021/12/08 18:53:58;;;;;;;24.50;9.27;;;1.00;99.90;196.50;224877.00;;;;4931382;29;20195;-87
2021/12/08 18:56:26;;;;;;;12.27;3.83;;;1.00;99.90;196.50;224877.00;;;;4935547;29;20195;-87
2021/12/08 18:58:59;;;;;;;32.07;9.67;;;1.00;99.90;196.50;224877.00;;;;4935307;29;20210;-87
2021/12/08 19:01:33;;;;;;;61.27;19.17;;;1.00;99.90;196.50;224877.00;;;;4933913;29;20671;-87
2021/12/08 19:04:03;;;;;;;42.13;17.47;;;1.10;99.90;196.50;224877.00;;;;4934678;28;20225;-87
2021/12/08 19:06:31;;;;;;;30.77;10.80;;;1.10;99.90;196.50;224877.00;;;;4928795;29;20195;-87
2021/12/08 19:09:03;;;;;;;12.90;4.90;;;1.00;99.90;196.50;224877.00;;;;4935230;29;20188;-86
2021/12/08 19:11:31;;;;;;;12.67;3.33;;;1.00;99.90;196.50;224877.00;;;;4944458;28;20701;-86
2021/12/08 19:13:58;;;;;;;11.53;3.30;;;1.00;99.90;196.50;224877.00;;;;4954162;28;20267;-87
2021/12/08 19:16:26;;;;;;;11.90;2.87;;;0.90;99.90;196.50;224877.00;;;;4950207;29;20726;-87
2021/12/08 19:18:58;;;;;;;9.37;2.50;;;0.90;99.90;196.50;224877.00;;;;4939120;29;20191;-88
2021/12/08 19:21:27;;;;;;;12.50;2.30;;;0.90;99.90;196.50;224877.00;;;;4936610;29;20211;-86
2021/12/08 19:23:57;;;;;;;12.00;2.47;;;0.90;99.90;196.50;224877.00;;;;4935485;29;20219;-88
2021/12/08 19:26:25;;;;;;;14.90;2.63;;;1.00;99.90;196.50;224877.00;;;;4936735;29;20227;-87
2021/12/08 19:28:52;;;;;;;14.07;2.60;;;1.00;99.90;196.50;224877.00;;;;4920748;29;20207;-87
2021/12/08 19:31:20;;;;;;;11.83;2.60;;;1.00;99.90;196.50;224877.00;;;;4936997;29;20198;-86
2021/12/08 19:33:54;;;;;;;13.13;3.10;;;1.00;99.90;196.50;224877.00;;;;4953375;29;20191;-86
2021/12/08 19:36:24;;;;;;;12.17;2.73;;;0.90;99.90;196.50;224877.00;;;;4936852;29;20230;-86
2021/12/08 19:38:58;;;;;;;15.27;2.73;;;0.90;99.90;196.50;224877.00;;;;4934390;29;20546;-87
2021/12/08 19:41:26;;;;;;;10.00;2.10;;;1.00;99.90;196.50;224877.00;;;;4931163;29;20199;-86
2021/12/08 19:43:54;;;;;;;9.67;2.23;;;0.90;99.90;196.50;224877.00;;;;4937320;29;20298;-87
2021/12/08 19:46:22;;;;;;;10.13;2.80;;;0.90;99.90;196.50;224877.00;;;;4953253;29;20199;-87
2021/12/08 19:48:50;;;;;;;12.63;3.00;;;0.90;99.90;196.50;224877.00;;;;4935267;29;20686;-88
2021/12/08 19:51:18;;;;;;;11.73;3.03;;;0.90;99.90;196.50;224877.00;;;;4945917;29;20187;-88
2021/12/08 19:53:46;;;;;;;12.00;3.57;;;0.80;99.90;196.50;224877.00;;;;4944067;29;20199;-87
2021/12/08 19:56:14;;;;;;;11.27;3.80;;;0.90;99.90;196.50;224877.00;;;;4955858;28;20206;-89
2021/12/08 19:58:46;;;;;;;19.60;6.30;;;0.90;99.90;196.50;224877.00;;;;4945609;28;20667;-85
2021/12/08 20:01:19;;;;;;;167.27;64.13;;;0.90;99.90;196.50;224877.00;;;;4952673;28;20722;-85
2021/12/08 20:03:49;;;;;;;16.77;6.47;;;0.90;99.90;196.50;224877.00;;;;4932337;29;20670;-85
2021/12/08 20:06:19;;;;;;;74.40;31.63;;;0.90;99.90;196.50;224877.00;;;;4921880;29;20340;-86
2021/12/08 20:08:48;;;;;;;162.67;67.53;;;0.80;99.90;196.50;224877.00;;;;4937030;29;20562;-86
2021/12/08 20:11:19;;;;;;;60.13;27.77;;;0.80;99.90;196.50;224877.00;;;;4931907;29;20203;-87
2021/12/08 20:13:50;;;;;;;28.27;13.50;;;0.80;99.90;196.50;224877.00;;;;4949488;29;20205;-85
2021/12/08 20:16:20;;;;;;;16.00;3.60;;;0.80;99.90;196.50;224877.00;;;;4949033;29;20201;-88
2021/12/08 20:18:48;;;;;;;16.00;4.37;;;0.70;99.90;196.50;224877.00;;;;4921793;28;20196;-86
2021/12/08 20:21:17;;;;;;;9.50;3.23;;;0.70;99.90;196.50;224877.00;;;;4921539;29;20251;-84
2021/12/08 20:23:45;;;;;;;12.00;3.20;;;0.60;99.90;196.50;224877.00;;;;4933284;29;20200;-86
2021/12/08 20:26:20;;;;;;;5.93;3.00;;;0.60;99.90;196.50;224877.00;;;;4930096;29;20179;-84
2021/12/08 20:28:54;;;;;;;12.77;3.87;;;0.60;99.90;196.50;224877.00;;;;4925528;28;20195;-86
2021/12/08 20:31:27;;;;;;;14.63;4.60;;;0.60;99.90;196.50;224877.00;;;;4949143;29;20246;-86
2021/12/08 20:33:56;;;;;;;10.10;3.87;;;0.60;99.90;196.50;224877.00;;;;4935288;28;20655;-86
2021/12/08 20:36:27;;;;;;;10.63;4.27;;;0.60;99.90;196.50;224877.00;;;;4936882;29;20196;-86
2021/12/08 20:38:56;;;;;;;8.30;4.10;;;0.60;99.90;196.50;224877.00;;;;4937300;29;20192;-86